Middle Brook, Missouri
Current Conditions -  °F | °C
As of 7:55 AM on Wednesday 26 Nov 2014 (Local Time) from KFAM Reporting Station
Scattered Clouds Scattered Clouds  
Wind Chill: 20°   Ceiling: Unl
Heat Index: 28°   Visibility: 10mi
Dew Point: 27°   Wind: 8mph
Humidity: 93%   Direction: 120°ESE
Pressure: 30.07"   Gusts: NA
Location:  37.66°N, 90.65°W
Report Text: KFAM 261355Z AUTO 12007KT 10SM SCT110 M02/M03 A3007 RMK AO1
Loading
Personal Weather Stations






























Interactive Weather Map New forecast layout! Learn more

10-Day Weather Forecast

Advertisements
Track Severe Weather on mobile